sensor_id;sensor_type;location;lat;lon;timestamp;temperature;humidity
20881;DHT22;10600;53.096;8.802;2023-04-23T00:00:31;13.10;99.90
20881;DHT22;10600;53.096;8.802;2023-04-23T00:01:33;13.00;99.90
20881;DHT22;10600;53.096;8.802;2023-04-23T00:02:39;13.00;99.90
20881;DHT22;10600;53.096;8.802;2023-04-23T00:03:43;12.90;99.90
20881;DHT22;10600;53.096;8.802;2023-04-23T00:04:50;12.90;99.90
20881;DHT22;10600;53.096;8.802;2023-04-23T00:05:51;12.80;99.90
20881;DHT22;10600;53.096;8.802;2023-04-23T00:06:54;12.80;99.90
20881;DHT22;10600;53.096;8.802;2023-04-23T00:07:55;12.80;99.90
20881;DHT22;10600;53.096;8.802;2023-04-23T00:08:59;12.80;99.90
20881;DHT22;10600;53.096;8.802;2023-04-23T00:10:01;12.80;99.90
20881;DHT22;10600;53.096;8.802;2023-04-23T00:11:05;12.80;99.90
20881;DHT22;10600;53.096;8.802;2023-04-23T00:12:06;12.70;99.90
20881;DHT22;10600;53.096;8.802;2023-04-23T00:13:08;12.70;99.90
20881;DHT22;10600;53.096;8.802;2023-04-23T00:14:09;12.70;99.90
20881;DHT22;10600;53.096;8.802;2023-04-23T00:15:11;12.70;99.90
20881;DHT22;10600;53.096;8.802;2023-04-23T00:16:13;12.70;99.90
20881;DHT22;10600;53.096;8.802;2023-04-23T00:17:14;12.60;99.90
20881;DHT22;10600;53.096;8.802;2023-04-23T00:18:14;12.60;99.90
20881;DHT22;10600;53.096;8.802;2023-04-23T00:19:16;12.60;99.90
20881;DHT22;10600;53.096;8.802;2023-04-23T00:20:17;12.60;99.90
20881;DHT22;10600;53.096;8.802;2023-04-23T00:21:18;12.60;99.90
20881;DHT22;10600;53.096;8.802;2023-04-23T00:22:18;12.60;99.90
20881;DHT22;10600;53.096;8.802;2023-04-23T00:23:22;12.60;99.90
20881;DHT22;10600;53.096;8.802;2023-04-23T00:24:22;12.60;99.90
20881;DHT22;10600;53.096;8.802;2023-04-23T00:25:23;12.60;99.90
20881;DHT22;10600;53.096;8.802;2023-04-23T00:26:23;12.60;99.90
20881;DHT22;10600;53.096;8.802;2023-04-23T00:27:24;12.50;99.90
20881;DHT22;10600;53.096;8.802;2023-04-23T00:28:25;12.50;99.90
20881;DHT22;10600;53.096;8.802;2023-04-23T00:29:25;12.50;99.90
20881;DHT22;10600;53.096;8.802;2023-04-23T00:30:26;12.50;99.90
20881;DHT22;10600;53.096;8.802;2023-04-23T00:31:27;12.50;99.90
20881;DHT22;10600;53.096;8.802;2023-04-23T00:32:28;12.40;99.90
20881;DHT22;10600;53.096;8.802;2023-04-23T00:33:29;12.40;99.90
20881;DHT22;10600;53.096;8.802;2023-04-23T00:34:30;12.40;99.90
20881;DHT22;10600;53.096;8.802;2023-04-23T00:35:31;12.40;99.90
20881;DHT22;10600;53.096;8.802;2023-04-23T00:36:32;12.40;99.90
20881;DHT22;10600;53.096;8.802;2023-04-23T00:37:33;12.40;99.90
20881;DHT22;10600;53.096;8.802;2023-04-23T00:38:33;12.40;99.90
20881;DHT22;10600;53.096;8.802;2023-04-23T00:39:34;12.40;99.90
20881;DHT22;10600;53.096;8.802;2023-04-23T00:40:37;12.40;99.90
20881;DHT22;10600;53.096;8.802;2023-04-23T00:41:38;12.30;99.90
20881;DHT22;10600;53.096;8.802;2023-04-23T00:42:39;12.30;99.90
20881;DHT22;10600;53.096;8.802;2023-04-23T00:43:40;12.30;99.90
20881;DHT22;10600;53.096;8.802;2023-04-23T00:44:40;12.30;99.90
20881;DHT22;10600;53.096;8.802;2023-04-23T00:45:41;12.30;99.90
20881;DHT22;10600;53.096;8.802;2023-04-23T00:46:42;12.20;99.90
20881;DHT22;10600;53.096;8.802;2023-04-23T00:47:43;12.30;99.90
20881;DHT22;10600;53.096;8.802;2023-04-23T00:48:45;12.30;99.90
20881;DHT22;10600;53.096;8.802;2023-04-23T00:49:46;12.30;99.90
20881;DHT22;10600;53.096;8.802;2023-04-23T00:50:48;12.20;99.90
20881;DHT22;10600;53.096;8.802;2023-04-23T00:51:48;12.20;99.90
20881;DHT22;10600;53.096;8.802;2023-04-23T00:52:50;12.20;99.90
20881;DHT22;10600;53.096;8.802;2023-04-23T00:53:51;12.20;99.90
20881;DHT22;10600;53.096;8.802;2023-04-23T00:54:51;12.20;99.90
20881;DHT22;10600;53.096;8.802;2023-04-23T00:55:52;12.10;99.90
20881;DHT22;10600;53.096;8.802;2023-04-23T00:56:54;12.10;99.90
20881;DHT22;10600;53.096;8.802;2023-04-23T00:57:55;12.10;99.90
20881;DHT22;10600;53.096;8.802;2023-04-23T00:58:56;12.10;99.90
20881;DHT22;10600;53.096;8.802;2023-04-23T00:59:57;12.00;99.90
20881;DHT22;10600;53.096;8.802;2023-04-23T01:00:58;12.00;99.90
20881;DHT22;10600;53.096;8.802;2023-04-23T01:02:01;12.00;99.90
20881;DHT22;10600;53.096;8.802;2023-04-23T01:03:02;12.00;99.90
20881;DHT22;10600;53.096;8.802;2023-04-23T01:04:03;12.00;99.90
20881;DHT22;10600;53.096;8.802;2023-04-23T01:05:04;12.00;99.90
20881;DHT22;10600;53.096;8.802;2023-04-23T01:06:07;12.00;99.90
20881;DHT22;10600;53.096;8.802;2023-04-23T01:07:08;12.00;99.90
20881;DHT22;10600;53.096;8.802;2023-04-23T01:08:14;12.00;99.90
20881;DHT22;10600;53.096;8.802;2023-04-23T01:09:15;12.00;99.90
20881;DHT22;10600;53.096;8.802;2023-04-23T01:10:17;12.00;99.90
20881;DHT22;10600;53.096;8.802;2023-04-23T01:11:18;11.90;99.90
20881;DHT22;10600;53.096;8.802;2023-04-23T01:12:19;11.90;99.90
20881;DHT22;10600;53.096;8.802;2023-04-23T01:13:20;11.90;99.90
20881;DHT22;10600;53.096;8.802;2023-04-23T01:14:21;11.90;99.90
20881;DHT22;10600;53.096;8.802;2023-04-23T01:15:23;11.90;99.90
20881;DHT22;10600;53.096;8.802;2023-04-23T01:16:23;11.80;99.90
20881;DHT22;10600;53.096;8.802;2023-04-23T01:17:24;11.80;99.90
20881;DHT22;10600;53.096;8.802;2023-04-23T01:18:26;11.80;99.90
20881;DHT22;10600;53.096;8.802;2023-04-23T01:19:26;11.70;99.90
20881;DHT22;10600;53.096;8.802;2023-04-23T01:20:27;11.70;99.90
20881;DHT22;10600;53.096;8.802;2023-04-23T01:21:28;11.60;99.90
20881;DHT22;10600;53.096;8.802;2023-04-23T01:22:29;11.60;99.90
20881;DHT22;10600;53.096;8.802;2023-04-23T01:23:30;11.60;99.90
20881;DHT22;10600;53.096;8.802;2023-04-23T01:24:31;11.60;99.90
20881;DHT22;10600;53.096;8.802;2023-04-23T01:25:31;11.60;99.90
20881;DHT22;10600;53.096;8.802;2023-04-23T01:26:33;11.60;99.90
20881;DHT22;10600;53.096;8.802;2023-04-23T01:27:34;11.60;99.90
20881;DHT22;10600;53.096;8.802;2023-04-23T01:28:35;11.60;99.90
20881;DHT22;10600;53.096;8.802;2023-04-23T01:29:39;11.60;99.90
20881;DHT22;10600;53.096;8.802;2023-04-23T01:30:44;11.60;99.90
20881;DHT22;10600;53.096;8.802;2023-04-23T01:31:46;11.50;99.90
20881;DHT22;10600;53.096;8.802;2023-04-23T01:32:47;11.50;99.90
20881;DHT22;10600;53.096;8.802;2023-04-23T01:33:50;11.50;99.90
20881;DHT22;10600;53.096;8.802;2023-04-23T01:34:51;11.50;99.90
20881;DHT22;10600;53.096;8.802;2023-04-23T01:35:54;11.50;99.90
20881;DHT22;10600;53.096;8.802;2023-04-23T01:36:57;11.50;99.90
20881;DHT22;10600;53.096;8.802;2023-04-23T01:37:59;11.50;99.90
20881;DHT22;10600;53.096;8.802;2023-04-23T01:39:02;11.40;99.90
20881;DHT22;10600;53.096;8.802;2023-04-23T01:40:03;11.40;99.90
20881;DHT22;10600;53.096;8.802;2023-04-23T01:41:04;11.40;99.90
20881;DHT22;10600;53.096;8.802;2023-04-23T01:42:05;11.40;99.90
20881;DHT22;10600;53.096;8.802;2023-04-23T01:43:07;11.40;99.90
20881;DHT22;10600;53.096;8.802;2023-04-23T01:44:09;11.40;99.90
20881;DHT22;10600;53.096;8.802;2023-04-23T01:45:10;11.40;99.90
20881;DHT22;10600;53.096;8.802;2023-04-23T01:46:11;11.40;99.90
20881;DHT22;10600;53.096;8.802;2023-04-23T01:47:12;11.40;99.90
20881;DHT22;10600;53.096;8.802;2023-04-23T01:48:13;11.30;99.90
20881;DHT22;10600;53.096;8.802;2023-04-23T01:49:14;11.30;99.90
20881;DHT22;10600;53.096;8.802;2023-04-23T01:50:15;11.30;99.90
20881;DHT22;10600;53.096;8.802;2023-04-23T01:51:15;11.30;99.90
20881;DHT22;10600;53.096;8.802;2023-04-23T01:52:16;11.30;99.90
20881;DHT22;10600;53.096;8.802;2023-04-23T01:53:18;11.30;99.90
20881;DHT22;10600;53.096;8.802;2023-04-23T01:54:18;11.20;99.90
20881;DHT22;10600;53.096;8.802;2023-04-23T01:55:19;11.20;99.90
20881;DHT22;10600;53.096;8.802;2023-04-23T01:56:22;11.20;99.90
20881;DHT22;10600;53.096;8.802;2023-04-23T01:57:24;11.20;99.90
20881;DHT22;10600;53.096;8.802;2023-04-23T01:58:26;11.20;99.90
20881;DHT22;10600;53.096;8.802;2023-04-23T01:59:26;11.20;99.90
20881;DHT22;10600;53.096;8.802;2023-04-23T02:00:27;11.10;99.90
20881;DHT22;10600;53.096;8.802;2023-04-23T02:01:43;11.10;99.90
20881;DHT22;10600;53.096;8.802;2023-04-23T02:02:44;11.10;99.90
20881;DHT22;10600;53.096;8.802;2023-04-23T02:03:45;11.10;99.90
20881;DHT22;10600;53.096;8.802;2023-04-23T02:04:46;11.10;99.90
20881;DHT22;10600;53.096;8.802;2023-04-23T02:05:49;11.00;99.90
20881;DHT22;10600;53.096;8.802;2023-04-23T02:06:53;11.00;99.90
20881;DHT22;10600;53.096;8.802;2023-04-23T02:07:54;11.00;99.90
20881;DHT22;10600;53.096;8.802;2023-04-23T02:08:55;11.00;99.90
20881;DHT22;10600;53.096;8.802;2023-04-23T02:09:55;10.90;99.90
20881;DHT22;10600;53.096;8.802;2023-04-23T02:10:56;10.90;99.90
20881;DHT22;10600;53.096;8.802;2023-04-23T02:11:56;10.90;99.90
20881;DHT22;10600;53.096;8.802;2023-04-23T02:12:58;10.80;99.90
20881;DHT22;10600;53.096;8.802;2023-04-23T02:14:00;10.80;99.90
20881;DHT22;10600;53.096;8.802;2023-04-23T02:15:00;10.80;99.90
20881;DHT22;10600;53.096;8.802;2023-04-23T02:16:01;10.80;99.90
20881;DHT22;10600;53.096;8.802;2023-04-23T02:17:02;10.80;99.90
20881;DHT22;10600;53.096;8.802;2023-04-23T02:18:03;10.70;99.90
20881;DHT22;10600;53.096;8.802;2023-04-23T02:19:04;10.70;99.90
20881;DHT22;10600;53.096;8.802;2023-04-23T02:20:06;10.70;99.90
20881;DHT22;10600;53.096;8.802;2023-04-23T02:21:09;10.70;99.90
20881;DHT22;10600;53.096;8.802;2023-04-23T02:22:10;10.70;99.90
20881;DHT22;10600;53.096;8.802;2023-04-23T02:23:11;10.60;99.90
20881;DHT22;10600;53.096;8.802;2023-04-23T02:24:12;10.60;99.90
20881;DHT22;10600;53.096;8.802;2023-04-23T02:25:13;10.60;99.90
20881;DHT22;10600;53.096;8.802;2023-04-23T02:26:17;10.60;99.90
20881;DHT22;10600;53.096;8.802;2023-04-23T02:27:18;10.60;99.90
20881;DHT22;10600;53.096;8.802;2023-04-23T02:28:19;10.60;99.90
20881;DHT22;10600;53.096;8.802;2023-04-23T02:29:20;10.60;99.90
20881;DHT22;10600;53.096;8.802;2023-04-23T02:30:20;10.60;99.90
20881;DHT22;10600;53.096;8.802;2023-04-23T02:31:22;10.60;99.90
20881;DHT22;10600;53.096;8.802;2023-04-23T02:32:23;10.50;99.90
20881;DHT22;10600;53.096;8.802;2023-04-23T02:33:23;10.50;99.90
20881;DHT22;10600;53.096;8.802;2023-04-23T02:34:25;10.50;99.90
20881;DHT22;10600;53.096;8.802;2023-04-23T02:35:26;10.50;99.90
20881;DHT22;10600;53.096;8.802;2023-04-23T02:36:26;10.50;99.90
20881;DHT22;10600;53.096;8.802;2023-04-23T02:37:31;10.50;99.90
20881;DHT22;10600;53.096;8.802;2023-04-23T02:38:31;10.50;99.90
20881;DHT22;10600;53.096;8.802;2023-04-23T02:39:32;10.40;99.90
20881;DHT22;10600;53.096;8.802;2023-04-23T02:40:33;10.40;99.90
20881;DHT22;10600;53.096;8.802;2023-04-23T02:41:33;10.40;99.90
20881;DHT22;10600;53.096;8.802;2023-04-23T02:42:34;10.40;99.90
20881;DHT22;10600;53.096;8.802;2023-04-23T02:43:34;10.40;99.90
20881;DHT22;10600;53.096;8.802;2023-04-23T02:44:35;10.30;99.90
20881;DHT22;10600;53.096;8.802;2023-04-23T02:45:36;10.30;99.90
20881;DHT22;10600;53.096;8.802;2023-04-23T02:46:36;10.30;99.90
20881;DHT22;10600;53.096;8.802;2023-04-23T02:47:38;10.30;99.90
20881;DHT22;10600;53.096;8.802;2023-04-23T02:48:40;10.30;99.90
20881;DHT22;10600;53.096;8.802;2023-04-23T02:49:40;10.30;99.90
20881;DHT22;10600;53.096;8.802;2023-04-23T02:50:41;10.30;99.90
20881;DHT22;10600;53.096;8.802;2023-04-23T02:51:42;10.30;99.90
20881;DHT22;10600;53.096;8.802;2023-04-23T02:52:42;10.20;99.90
20881;DHT22;10600;53.096;8.802;2023-04-23T02:53:43;10.20;99.90
20881;DHT22;10600;53.096;8.802;2023-04-23T02:54:44;10.20;99.90
20881;DHT22;10600;53.096;8.802;2023-04-23T02:55:44;10.20;99.90
20881;DHT22;10600;53.096;8.802;2023-04-23T02:56:45;10.20;99.90
20881;DHT22;10600;53.096;8.802;2023-04-23T02:57:45;10.20;99.90
20881;DHT22;10600;53.096;8.802;2023-04-23T02:58:46;10.20;99.90
20881;DHT22;10600;53.096;8.802;2023-04-23T02:59:47;10.20;99.90
20881;DHT22;10600;53.096;8.802;2023-04-23T03:00:47;10.20;99.90
20881;DHT22;10600;53.096;8.802;2023-04-23T03:01:48;10.20;99.90
20881;DHT22;10600;53.096;8.802;2023-04-23T03:02:49;10.20;99.90
20881;DHT22;10600;53.096;8.802;2023-04-23T03:03:50;10.20;99.90
20881;DHT22;10600;53.096;8.802;2023-04-23T03:04:50;10.20;99.90
20881;DHT22;10600;53.096;8.802;2023-04-23T03:05:52;10.10;99.90
20881;DHT22;10600;53.096;8.802;2023-04-23T03:06:52;10.20;99.90
20881;DHT22;10600;53.096;8.802;2023-04-23T03:07:53;10.10;99.90
20881;DHT22;10600;53.096;8.802;2023-04-23T03:08:54;10.20;99.90
20881;DHT22;10600;53.096;8.802;2023-04-23T03:09:55;10.10;99.90
20881;DHT22;10600;53.096;8.802;2023-04-23T03:10:55;10.20;99.90
20881;DHT22;10600;53.096;8.802;2023-04-23T03:11:56;10.10;99.90
20881;DHT22;10600;53.096;8.802;2023-04-23T03:12:57;10.20;99.90
20881;DHT22;10600;53.096;8.802;2023-04-23T03:13:58;10.20;99.90
20881;DHT22;10600;53.096;8.802;2023-04-23T03:14:59;10.20;99.90
20881;DHT22;10600;53.096;8.802;2023-04-23T03:16:00;10.20;99.90
20881;DHT22;10600;53.096;8.802;2023-04-23T03:17:00;10.20;99.90
20881;DHT22;10600;53.096;8.802;2023-04-23T03:18:01;10.10;99.90
20881;DHT22;10600;53.096;8.802;2023-04-23T03:19:03;10.20;99.90
20881;DHT22;10600;53.096;8.802;2023-04-23T03:20:04;10.10;99.90
20881;DHT22;10600;53.096;8.802;2023-04-23T03:21:06;10.10;99.90
20881;DHT22;10600;53.096;8.802;2023-04-23T03:22:07;10.10;99.90
20881;DHT22;10600;53.096;8.802;2023-04-23T03:23:07;10.10;99.90
20881;DHT22;10600;53.096;8.802;2023-04-23T03:24:11;10.10;99.90
20881;DHT22;10600;53.096;8.802;2023-04-23T03:25:12;10.10;99.90
20881;DHT22;10600;53.096;8.802;2023-04-23T03:26:13;10.10;99.90
20881;DHT22;10600;53.096;8.802;2023-04-23T03:27:14;10.10;99.90
20881;DHT22;10600;53.096;8.802;2023-04-23T03:28:14;10.10;99.90
20881;DHT22;10600;53.096;8.802;2023-04-23T03:29:15;10.00;99.90
20881;DHT22;10600;53.096;8.802;2023-04-23T03:30:15;10.00;99.90
20881;DHT22;10600;53.096;8.802;2023-04-23T03:31:16;10.00;99.90
20881;DHT22;10600;53.096;8.802;2023-04-23T03:32:17;10.00;99.90
20881;DHT22;10600;53.096;8.802;2023-04-23T03:33:17;10.00;99.90
20881;DHT22;10600;53.096;8.802;2023-04-23T03:34:18;10.00;99.90
20881;DHT22;10600;53.096;8.802;2023-04-23T03:35:19;10.00;99.90
20881;DHT22;10600;53.096;8.802;2023-04-23T03:36:19;9.90;99.90
20881;DHT22;10600;53.096;8.802;2023-04-23T03:37:20;9.90;99.90
20881;DHT22;10600;53.096;8.802;2023-04-23T03:38:21;9.90;99.90
20881;DHT22;10600;53.096;8.802;2023-04-23T03:39:22;9.90;99.90
20881;DHT22;10600;53.096;8.802;2023-04-23T03:40:22;9.90;99.90
20881;DHT22;10600;53.096;8.802;2023-04-23T03:41:23;9.90;99.90
20881;DHT22;10600;53.096;8.802;2023-04-23T03:42:24;9.90;99.90
20881;DHT22;10600;53.096;8.802;2023-04-23T03:43:24;9.90;99.90
20881;DHT22;10600;53.096;8.802;2023-04-23T03:44:25;9.90;99.90
20881;DHT22;10600;53.096;8.802;2023-04-23T03:45:26;9.90;99.90
20881;DHT22;10600;53.096;8.802;2023-04-23T03:46:26;9.90;99.90
20881;DHT22;10600;53.096;8.802;2023-04-23T03:47:27;9.90;99.90
20881;DHT22;10600;53.096;8.802;2023-04-23T03:48:27;9.90;99.90
20881;DHT22;10600;53.096;8.802;2023-04-23T03:49:28;9.90;99.90
20881;DHT22;10600;53.096;8.802;2023-04-23T03:50:29;9.90;99.90
20881;DHT22;10600;53.096;8.802;2023-04-23T03:51:31;9.90;99.90
20881;DHT22;10600;53.096;8.802;2023-04-23T03:52:31;9.90;99.90
20881;DHT22;10600;53.096;8.802;2023-04-23T03:53:32;9.90;99.90
20881;DHT22;10600;53.096;8.802;2023-04-23T03:54:33;9.90;99.90
20881;DHT22;10600;53.096;8.802;2023-04-23T03:55:33;9.90;99.90
20881;DHT22;10600;53.096;8.802;2023-04-23T03:56:34;9.90;99.90
20881;DHT22;10600;53.096;8.802;2023-04-23T03:57:35;9.90;99.90
20881;DHT22;10600;53.096;8.802;2023-04-23T03:58:36;9.90;99.90
20881;DHT22;10600;53.096;8.802;2023-04-23T03:59:37;9.80;99.90
20881;DHT22;10600;53.096;8.802;2023-04-23T04:00:38;9.80;99.90
20881;DHT22;10600;53.096;8.802;2023-04-23T04:01:38;9.80;99.90
20881;DHT22;10600;53.096;8.802;2023-04-23T04:02:39;9.80;99.90
20881;DHT22;10600;53.096;8.802;2023-04-23T04:03:40;9.80;99.90
20881;DHT22;10600;53.096;8.802;2023-04-23T04:04:40;9.80;99.90
20881;DHT22;10600;53.096;8.802;2023-04-23T04:05:42;9.80;99.90
20881;DHT22;10600;53.096;8.802;2023-04-23T04:06:43;9.80;99.90
20881;DHT22;10600;53.096;8.802;2023-04-23T04:07:44;9.80;99.90
20881;DHT22;10600;53.096;8.802;2023-04-23T04:08:45;9.70;99.90
20881;DHT22;10600;53.096;8.802;2023-04-23T04:09:45;9.80;99.90
20881;DHT22;10600;53.096;8.802;2023-04-23T04:10:48;9.70;99.90
20881;DHT22;10600;53.096;8.802;2023-04-23T04:11:49;9.70;99.90
20881;DHT22;10600;53.096;8.802;2023-04-23T04:12:49;9.70;99.90
20881;DHT22;10600;53.096;8.802;2023-04-23T04:13:50;9.70;99.90
20881;DHT22;10600;53.096;8.802;2023-04-23T04:14:51;9.70;99.90
20881;DHT22;10600;53.096;8.802;2023-04-23T04:15:51;9.70;99.90
20881;DHT22;10600;53.096;8.802;2023-04-23T04:16:52;9.70;99.90
20881;DHT22;10600;53.096;8.802;2023-04-23T04:17:52;9.70;99.90
20881;DHT22;10600;53.096;8.802;2023-04-23T04:18:53;9.70;99.90
20881;DHT22;10600;53.096;8.802;2023-04-23T04:19:54;9.70;99.90
20881;DHT22;10600;53.096;8.802;2023-04-23T04:20:54;9.70;99.90
20881;DHT22;10600;53.096;8.802;2023-04-23T04:21:55;9.70;99.90
20881;DHT22;10600;53.096;8.802;2023-04-23T04:22:56;9.70;99.90
20881;DHT22;10600;53.096;8.802;2023-04-23T04:23:56;9.70;99.90
20881;DHT22;10600;53.096;8.802;2023-04-23T04:24:57;9.70;99.90
20881;DHT22;10600;53.096;8.802;2023-04-23T04:25:58;9.70;99.90
20881;DHT22;10600;53.096;8.802;2023-04-23T04:26:59;9.70;99.90
20881;DHT22;10600;53.096;8.802;2023-04-23T04:27:59;9.70;99.90
20881;DHT22;10600;53.096;8.802;2023-04-23T04:29:00;9.70;99.90
20881;DHT22;10600;53.096;8.802;2023-04-23T04:30:01;9.70;99.90
20881;DHT22;10600;53.096;8.802;2023-04-23T04:31:03;9.70;99.90
20881;DHT22;10600;53.096;8.802;2023-04-23T04:32:04;9.70;99.90
20881;DHT22;10600;53.096;8.802;2023-04-23T04:33:05;9.70;99.90
20881;DHT22;10600;53.096;8.802;2023-04-23T04:34:06;9.70;99.90
20881;DHT22;10600;53.096;8.802;2023-04-23T04:35:08;9.70;99.90
20881;DHT22;10600;53.096;8.802;2023-04-23T04:36:09;9.70;99.90
20881;DHT22;10600;53.096;8.802;2023-04-23T04:37:09;9.70;99.90
20881;DHT22;10600;53.096;8.802;2023-04-23T04:38:10;9.70;99.90
20881;DHT22;10600;53.096;8.802;2023-04-23T04:39:11;9.70;99.90
20881;DHT22;10600;53.096;8.802;2023-04-23T04:40:14;9.70;99.90
20881;DHT22;10600;53.096;8.802;2023-04-23T04:41:15;9.70;99.90
20881;DHT22;10600;53.096;8.802;2023-04-23T04:42:15;9.70;99.90
20881;DHT22;10600;53.096;8.802;2023-04-23T04:43:16;9.70;99.90
20881;DHT22;10600;53.096;8.802;2023-04-23T04:44:17;9.70;99.90
20881;DHT22;10600;53.096;8.802;2023-04-23T04:45:18;9.70;99.90
20881;DHT22;10600;53.096;8.802;2023-04-23T04:46:19;9.70;99.90
20881;DHT22;10600;53.096;8.802;2023-04-23T04:47:20;9.70;99.90
20881;DHT22;10600;53.096;8.802;2023-04-23T04:48:21;9.80;99.90
20881;DHT22;10600;53.096;8.802;2023-04-23T04:49:21;9.70;99.90
20881;DHT22;10600;53.096;8.802;2023-04-23T04:50:22;9.80;99.90
20881;DHT22;10600;53.096;8.802;2023-04-23T04:51:23;9.80;99.90
20881;DHT22;10600;53.096;8.802;2023-04-23T04:52:24;9.80;99.90
20881;DHT22;10600;53.096;8.802;2023-04-23T04:53:25;9.80;99.90
20881;DHT22;10600;53.096;8.802;2023-04-23T04:54:25;9.80;99.90
20881;DHT22;10600;53.096;8.802;2023-04-23T04:55:26;9.90;99.90
20881;DHT22;10600;53.096;8.802;2023-04-23T04:56:27;9.90;99.90
20881;DHT22;10600;53.096;8.802;2023-04-23T04:57:27;9.90;99.90
20881;DHT22;10600;53.096;8.802;2023-04-23T04:58:28;9.90;99.90
20881;DHT22;10600;53.096;8.802;2023-04-23T04:59:28;9.90;99.90
20881;DHT22;10600;53.096;8.802;2023-04-23T05:00:29;9.90;99.90
20881;DHT22;10600;53.096;8.802;2023-04-23T05:01:30;9.90;99.90
20881;DHT22;10600;53.096;8.802;2023-04-23T05:02:31;9.90;99.90
20881;DHT22;10600;53.096;8.802;2023-04-23T05:03:32;9.90;99.90
20881;DHT22;10600;53.096;8.802;2023-04-23T05:04:33;9.90;99.90
20881;DHT22;10600;53.096;8.802;2023-04-23T05:05:33;9.90;99.90
20881;DHT22;10600;53.096;8.802;2023-04-23T05:06:34;9.90;99.90
20881;DHT22;10600;53.096;8.802;2023-04-23T05:07:34;9.90;99.90
20881;DHT22;10600;53.096;8.802;2023-04-23T05:08:35;9.90;99.90
20881;DHT22;10600;53.096;8.802;2023-04-23T05:09:36;9.90;99.90
20881;DHT22;10600;53.096;8.802;2023-04-23T05:10:37;9.90;99.90
20881;DHT22;10600;53.096;8.802;2023-04-23T05:11:37;9.90;99.90
20881;DHT22;10600;53.096;8.802;2023-04-23T05:12:39;9.90;99.90
20881;DHT22;10600;53.096;8.802;2023-04-23T05:13:43;10.00;99.90
20881;DHT22;10600;53.096;8.802;2023-04-23T05:14:44;10.00;99.90
20881;DHT22;10600;53.096;8.802;2023-04-23T05:15:45;10.00;99.90
20881;DHT22;10600;53.096;8.802;2023-04-23T05:16:45;10.10;99.90
20881;DHT22;10600;53.096;8.802;2023-04-23T05:17:46;10.10;99.90
20881;DHT22;10600;53.096;8.802;2023-04-23T05:18:47;10.10;99.90
20881;DHT22;10600;53.096;8.802;2023-04-23T05:19:47;10.10;99.90
20881;DHT22;10600;53.096;8.802;2023-04-23T05:20:48;10.10;99.90
20881;DHT22;10600;53.096;8.802;2023-04-23T05:21:49;10.10;99.90
20881;DHT22;10600;53.096;8.802;2023-04-23T05:22:50;10.10;99.90
20881;DHT22;10600;53.096;8.802;2023-04-23T05:23:50;10.10;99.90
20881;DHT22;10600;53.096;8.802;2023-04-23T05:24:51;10.10;99.90
20881;DHT22;10600;53.096;8.802;2023-04-23T05:25:52;10.10;99.90
20881;DHT22;10600;53.096;8.802;2023-04-23T05:26:55;10.10;99.90
20881;DHT22;10600;53.096;8.802;2023-04-23T05:27:56;10.10;99.90
20881;DHT22;10600;53.096;8.802;2023-04-23T05:28:57;10.00;99.90
20881;DHT22;10600;53.096;8.802;2023-04-23T05:29:58;10.00;99.90
20881;DHT22;10600;53.096;8.802;2023-04-23T05:30:58;10.10;99.90
20881;DHT22;10600;53.096;8.802;2023-04-23T05:31:59;10.10;99.90
20881;DHT22;10600;53.096;8.802;2023-04-23T05:33:00;10.10;99.90
20881;DHT22;10600;53.096;8.802;2023-04-23T05:34:00;10.10;99.90
20881;DHT22;10600;53.096;8.802;2023-04-23T05:35:01;10.10;99.90
20881;DHT22;10600;53.096;8.802;2023-04-23T05:36:03;10.10;99.90
20881;DHT22;10600;53.096;8.802;2023-04-23T05:37:04;10.10;99.90
20881;DHT22;10600;53.096;8.802;2023-04-23T05:38:05;10.10;99.90
20881;DHT22;10600;53.096;8.802;2023-04-23T05:39:06;10.10;99.90
20881;DHT22;10600;53.096;8.802;2023-04-23T05:40:07;10.10;99.90
20881;DHT22;10600;53.096;8.802;2023-04-23T05:41:08;10.10;99.90
20881;DHT22;10600;53.096;8.802;2023-04-23T05:42:09;10.10;99.90
20881;DHT22;10600;53.096;8.802;2023-04-23T05:43:10;10.20;99.90
20881;DHT22;10600;53.096;8.802;2023-04-23T05:44:11;10.10;99.90
20881;DHT22;10600;53.096;8.802;2023-04-23T05:45:11;10.10;99.90
20881;DHT22;10600;53.096;8.802;2023-04-23T05:46:12;10.10;99.90
20881;DHT22;10600;53.096;8.802;2023-04-23T05:47:13;10.20;99.90
20881;DHT22;10600;53.096;8.802;2023-04-23T05:48:14;10.10;99.90
20881;DHT22;10600;53.096;8.802;2023-04-23T05:49:14;10.20;99.90
20881;DHT22;10600;53.096;8.802;2023-04-23T05:50:15;10.20;99.90
20881;DHT22;10600;53.096;8.802;2023-04-23T05:51:17;10.20;99.90
20881;DHT22;10600;53.096;8.802;2023-04-23T05:52:18;10.20;99.90
20881;DHT22;10600;53.096;8.802;2023-04-23T05:53:18;10.30;99.90
20881;DHT22;10600;53.096;8.802;2023-04-23T05:54:19;10.30;99.90
20881;DHT22;10600;53.096;8.802;2023-04-23T05:55:20;10.30;99.90
20881;DHT22;10600;53.096;8.802;2023-04-23T05:56:23;10.30;99.90
20881;DHT22;10600;53.096;8.802;2023-04-23T05:57:23;10.30;99.90
20881;DHT22;10600;53.096;8.802;2023-04-23T05:58:24;10.30;99.90
20881;DHT22;10600;53.096;8.802;2023-04-23T05:59:25;10.40;99.90
20881;DHT22;10600;53.096;8.802;2023-04-23T06:00:26;10.40;99.90
20881;DHT22;10600;53.096;8.802;2023-04-23T06:01:26;10.40;99.90
20881;DHT22;10600;53.096;8.802;2023-04-23T06:02:28;10.40;99.90
20881;DHT22;10600;53.096;8.802;2023-04-23T06:03:28;10.40;99.90
20881;DHT22;10600;53.096;8.802;2023-04-23T06:04:29;10.40;99.90
20881;DHT22;10600;53.096;8.802;2023-04-23T06:05:30;10.50;99.90
20881;DHT22;10600;53.096;8.802;2023-04-23T06:06:30;10.50;99.90
20881;DHT22;10600;53.096;8.802;2023-04-23T06:07:31;10.50;99.90
20881;DHT22;10600;53.096;8.802;2023-04-23T06:08:32;10.50;99.90
20881;DHT22;10600;53.096;8.802;2023-04-23T06:09:32;10.50;99.90
20881;DHT22;10600;53.096;8.802;2023-04-23T06:10:33;10.60;99.90
20881;DHT22;10600;53.096;8.802;2023-04-23T06:11:34;10.60;99.90
20881;DHT22;10600;53.096;8.802;2023-04-23T06:12:35;10.60;99.90
20881;DHT22;10600;53.096;8.802;2023-04-23T06:13:38;10.60;99.90
20881;DHT22;10600;53.096;8.802;2023-04-23T06:14:40;10.60;99.90
20881;DHT22;10600;53.096;8.802;2023-04-23T06:15:40;10.60;99.90
20881;DHT22;10600;53.096;8.802;2023-04-23T06:16:41;10.60;99.90
20881;DHT22;10600;53.096;8.802;2023-04-23T06:17:42;10.60;99.90
20881;DHT22;10600;53.096;8.802;2023-04-23T06:18:42;10.70;99.90
20881;DHT22;10600;53.096;8.802;2023-04-23T06:19:43;10.70;99.90
20881;DHT22;10600;53.096;8.802;2023-04-23T06:20:44;10.70;99.90
20881;DHT22;10600;53.096;8.802;2023-04-23T06:21:44;10.70;99.90
20881;DHT22;10600;53.096;8.802;2023-04-23T06:22:45;10.70;99.90
20881;DHT22;10600;53.096;8.802;2023-04-23T06:23:45;10.80;99.90
20881;DHT22;10600;53.096;8.802;2023-04-23T06:24:46;10.80;99.90
20881;DHT22;10600;53.096;8.802;2023-04-23T06:25:47;10.80;99.90
20881;DHT22;10600;53.096;8.802;2023-04-23T06:26:47;10.80;99.90
20881;DHT22;10600;53.096;8.802;2023-04-23T06:27:48;10.80;99.90